createdAt,value
2018-10-09T00:00:52.807Z,92.90
2018-10-09T00:03:21.100Z,92.90
2018-10-09T00:05:49.425Z,93.00
2018-10-09T00:08:17.765Z,93.10
2018-10-09T00:10:46.087Z,93.30
2018-10-09T00:13:14.430Z,93.30
2018-10-09T00:15:42.767Z,93.60
2018-10-09T00:18:11.111Z,93.60
2018-10-09T00:20:39.435Z,93.20
2018-10-09T00:23:08.043Z,93.10
2018-10-09T00:25:36.364Z,93.20
2018-10-09T00:28:04.719Z,93.30
2018-10-09T00:30:33.030Z,93.50
2018-10-09T00:33:01.380Z,93.60
2018-10-09T00:35:29.707Z,93.50
2018-10-09T00:37:58.051Z,93.40
2018-10-09T00:40:26.386Z,93.80
2018-10-09T00:42:54.757Z,93.80
2018-10-09T00:45:23.213Z,93.40
2018-10-09T00:47:51.611Z,93.60
2018-10-09T00:50:19.987Z,93.40
2018-10-09T00:52:48.323Z,93.40
2018-10-09T00:55:16.660Z,93.40
2018-10-09T00:57:44.999Z,93.50
2018-10-09T01:00:14.069Z,93.50
2018-10-09T01:02:42.590Z,93.70
2018-10-09T01:05:10.945Z,93.60
2018-10-09T01:07:39.288Z,93.50
2018-10-09T01:10:07.643Z,93.50
2018-10-09T01:12:35.971Z,93.60
2018-10-09T01:15:04.411Z,93.60
2018-10-09T01:17:32.783Z,93.70
2018-10-09T01:20:01.136Z,93.70
2018-10-09T01:22:29.467Z,93.90
2018-10-09T01:24:57.830Z,93.80
2018-10-09T01:27:26.150Z,93.90
2018-10-09T01:29:54.502Z,93.90
2018-10-09T01:32:22.823Z,93.80
2018-10-09T01:34:51.166Z,93.90
2018-10-09T01:37:19.514Z,93.80
2018-10-09T01:39:47.859Z,93.90
2018-10-09T01:42:16.241Z,94.00
2018-10-09T01:44:44.595Z,94.10
2018-10-09T01:47:12.926Z,94.10
2018-10-09T01:49:41.306Z,94.10
2018-10-09T01:52:09.635Z,94.20
2018-10-09T01:54:37.979Z,94.10
2018-10-09T01:57:06.313Z,94.40
2018-10-09T01:59:34.656Z,94.90
2018-10-09T02:02:02.984Z,94.80
2018-10-09T02:04:31.427Z,95.00
2018-10-09T02:06:59.752Z,95.20
2018-10-09T02:09:28.103Z,95.00
2018-10-09T02:11:56.433Z,95.20
2018-10-09T02:14:25.220Z,94.90
2018-10-09T02:16:53.567Z,94.60
2018-10-09T02:19:21.927Z,94.50
2018-10-09T02:21:50.250Z,94.60
2018-10-09T02:24:18.584Z,94.70
2018-10-09T02:26:46.925Z,94.70
2018-10-09T02:29:15.274Z,94.90
2018-10-09T02:31:43.620Z,94.90
2018-10-09T02:34:11.954Z,95.00
2018-10-09T02:36:40.301Z,95.10
2018-10-09T02:39:09.950Z,95.50
2018-10-09T02:41:38.307Z,95.30
2018-10-09T02:44:06.875Z,95.40
2018-10-09T02:46:35.214Z,95.00
2018-10-09T02:49:03.551Z,95.20
2018-10-09T02:51:31.900Z,94.90
2018-10-09T02:54:00.214Z,94.80
2018-10-09T02:56:28.575Z,94.70
2018-10-09T02:58:56.894Z,94.80
2018-10-09T03:01:25.242Z,94.80
2018-10-09T03:03:53.559Z,94.70
2018-10-09T03:06:21.995Z,94.70
2018-10-09T03:08:50.319Z,94.70
2018-10-09T03:11:18.663Z,94.80
2018-10-09T03:13:46.987Z,94.70
2018-10-09T03:16:15.440Z,94.80
2018-10-09T03:18:43.767Z,94.90
2018-10-09T03:21:12.123Z,94.90
2018-10-09T03:23:40.502Z,94.70
2018-10-09T03:26:09.187Z,94.80
2018-10-09T03:28:37.619Z,94.80
2018-10-09T03:31:06.139Z,94.90
2018-10-09T03:33:34.471Z,95.00
2018-10-09T03:36:02.814Z,95.00
2018-10-09T03:38:31.151Z,95.10
2018-10-09T03:40:59.510Z,95.20
2018-10-09T03:43:27.855Z,95.40
2018-10-09T03:45:56.253Z,95.70
2018-10-09T03:48:24.578Z,95.70
2018-10-09T03:50:52.902Z,95.50
2018-10-09T03:53:21.497Z,95.30
2018-10-09T03:55:49.838Z,95.20
2018-10-09T03:58:18.342Z,95.20
2018-10-09T04:00:46.774Z,95.20
2018-10-09T04:03:15.210Z,95.20
2018-10-09T04:05:43.790Z,95.20
2018-10-09T04:08:12.252Z,95.20
2018-10-09T04:10:40.590Z,95.30
2018-10-09T04:13:08.946Z,95.30
2018-10-09T04:15:37.341Z,95.50
2018-10-09T04:18:05.744Z,95.50
2018-10-09T04:20:34.075Z,95.50
2018-10-09T04:23:02.453Z,95.40
2018-10-09T04:25:30.786Z,95.50
2018-10-09T04:27:59.144Z,95.50
2018-10-09T04:30:27.476Z,95.50
2018-10-09T04:32:55.836Z,95.50
2018-10-09T04:35:24.193Z,95.80
2018-10-09T04:37:53.215Z,96.10
2018-10-09T04:40:21.549Z,96.10
2018-10-09T04:42:49.919Z,96.10
2018-10-09T04:45:18.258Z,96.20
2018-10-09T04:47:46.799Z,96.10
2018-10-09T04:50:15.296Z,96.30
2018-10-09T04:52:43.764Z,96.20
2018-10-09T04:55:12.111Z,96.40
2018-10-09T04:57:40.479Z,96.20
2018-10-09T05:00:09.087Z,95.90
2018-10-09T05:02:37.473Z,95.90
2018-10-09T05:05:05.843Z,95.90
2018-10-09T05:07:34.187Z,95.90
2018-10-09T05:10:02.778Z,95.80
2018-10-09T05:12:31.116Z,95.80
2018-10-09T05:14:59.486Z,95.70
2018-10-09T05:17:27.867Z,95.70
2018-10-09T05:19:56.231Z,95.80
2018-10-09T05:22:24.571Z,95.80
2018-10-09T05:24:52.948Z,95.80
2018-10-09T05:27:21.303Z,95.70
2018-10-09T05:29:49.671Z,95.90
2018-10-09T05:32:18.017Z,95.90
2018-10-09T05:34:46.399Z,96.00
2018-10-09T05:37:14.762Z,96.00
2018-10-09T05:39:43.920Z,96.20
2018-10-09T05:42:12.273Z,96.30
2018-10-09T05:44:41.610Z,96.20
2018-10-09T05:47:11.129Z,96.40
2018-10-09T05:49:39.539Z,96.20
2018-10-09T05:52:08.298Z,96.40
2018-10-09T05:54:37.860Z,96.30
2018-10-09T05:57:06.784Z,96.20
2018-10-09T05:59:35.160Z,96.00
2018-10-09T06:02:06.100Z,96.20
2018-10-09T06:04:34.531Z,96.10
2018-10-09T06:07:02.975Z,96.20
2018-10-09T06:09:31.358Z,96.20
2018-10-09T06:11:59.819Z,96.30
2018-10-09T06:14:28.308Z,96.70
2018-10-09T06:16:56.876Z,96.70
2018-10-09T06:19:25.263Z,97.00
2018-10-09T06:21:53.614Z,97.30
2018-10-09T06:24:22.015Z,97.40
2018-10-09T06:26:50.371Z,97.00
2018-10-09T06:29:18.764Z,96.90
2018-10-09T06:31:47.118Z,97.20
2018-10-09T06:34:15.486Z,97.20
2018-10-09T06:36:43.939Z,96.90
2018-10-09T06:39:12.628Z,96.60
2018-10-09T06:41:42.055Z,96.90
2018-10-09T06:44:10.623Z,96.80
2018-10-09T06:46:39.004Z,97.30
2018-10-09T06:49:07.378Z,97.20
2018-10-09T06:51:35.748Z,96.80
2018-10-09T06:54:04.228Z,96.70
2018-10-09T06:56:32.528Z,96.80
2018-10-09T06:59:00.894Z,96.70
2018-10-09T07:01:29.280Z,96.70
2018-10-09T07:03:57.661Z,96.80
2018-10-09T07:06:26.143Z,96.70
2018-10-09T07:08:54.503Z,96.80
2018-10-09T07:11:23.063Z,96.90
2018-10-09T07:13:51.473Z,96.90
2018-10-09T07:16:19.871Z,96.90
2018-10-09T07:18:48.227Z,96.90
2018-10-09T07:21:16.599Z,96.90
2018-10-09T07:23:44.953Z,97.00
2018-10-09T07:26:13.335Z,97.00
2018-10-09T07:28:41.692Z,96.90
2018-10-09T07:31:10.061Z,97.00
2018-10-09T07:33:38.419Z,97.00
2018-10-09T07:36:06.886Z,97.20
2018-10-09T07:38:35.240Z,97.20
2018-10-09T07:41:04.610Z,97.30
2018-10-09T07:43:32.962Z,97.30
2018-10-09T07:46:01.372Z,97.20
2018-10-09T07:48:29.766Z,97.20
2018-10-09T07:50:58.175Z,96.90
2018-10-09T07:53:26.542Z,96.70
2018-10-09T07:55:54.896Z,96.60
2018-10-09T07:58:23.268Z,96.60
2018-10-09T08:00:51.636Z,96.40
2018-10-09T08:03:20.162Z,96.60
2018-10-09T08:05:48.681Z,96.60
2018-10-09T08:08:17.370Z,96.50
2018-10-09T08:10:45.772Z,96.60
2018-10-09T08:13:14.171Z,96.40
2018-10-09T08:15:42.629Z,95.90
2018-10-09T08:18:10.984Z,95.40
2018-10-09T08:20:39.391Z,95.20
2018-10-09T08:23:07.763Z,95.10
2018-10-09T08:25:36.125Z,95.10
2018-10-09T08:28:04.575Z,94.80
2018-10-09T08:30:32.898Z,94.70
2018-10-09T08:33:01.289Z,94.40
2018-10-09T08:35:29.653Z,94.20
2018-10-09T08:37:58.028Z,94.10
2018-10-09T08:40:26.597Z,93.90
2018-10-09T08:42:54.957Z,93.90
2018-10-09T08:45:23.317Z,93.80
2018-10-09T08:47:51.703Z,93.80
2018-10-09T08:50:20.068Z,93.70
2018-10-09T08:52:48.451Z,93.50
2018-10-09T08:55:16.828Z,93.30
2018-10-09T08:57:45.248Z,93.10
2018-10-09T09:00:13.636Z,92.80
2018-10-09T09:02:42.028Z,92.40
2018-10-09T09:05:10.398Z,92.10
2018-10-09T09:07:39.024Z,92.00
2018-10-09T09:10:07.429Z,91.80
2018-10-09T09:12:35.810Z,91.40
2018-10-09T09:15:04.271Z,91.30
2018-10-09T09:17:32.685Z,91.30
2018-10-09T09:20:01.070Z,90.80
2018-10-09T09:22:29.458Z,90.80
2018-10-09T09:24:57.811Z,90.30
2018-10-09T09:27:26.269Z,90.60
2018-10-09T09:29:54.619Z,89.90
2018-10-09T09:32:23.028Z,89.60
2018-10-09T09:34:51.456Z,89.40
2018-10-09T09:37:19.865Z,89.10
2018-10-09T09:39:48.231Z,88.00
2018-10-09T09:42:16.633Z,87.90
2018-10-09T09:44:45.053Z,87.70
2018-10-09T09:47:13.442Z,87.60
2018-10-09T09:49:41.809Z,86.60
2018-10-09T09:52:10.299Z,86.00
2018-10-09T09:54:38.757Z,85.20
2018-10-09T09:57:07.184Z,84.90
2018-10-09T09:59:35.571Z,84.50
2018-10-09T10:02:03.948Z,84.10
2018-10-09T10:04:32.316Z,83.60
2018-10-09T10:07:00.695Z,83.60
2018-10-09T10:09:29.050Z,83.20
2018-10-09T10:11:57.446Z,82.10
2018-10-09T10:14:25.832Z,82.10
2018-10-09T10:16:54.257Z,81.60
2018-10-09T10:19:22.632Z,80.10
2018-10-09T10:21:51.049Z,79.70
2018-10-09T10:24:19.473Z,79.30
2018-10-09T10:26:47.896Z,78.80
2018-10-09T10:29:16.309Z,78.40
2018-10-09T10:31:44.654Z,78.00
2018-10-09T10:34:13.041Z,77.60
2018-10-09T10:36:41.425Z,77.30
2018-10-09T10:39:11.225Z,76.60
2018-10-09T10:41:39.580Z,76.30
2018-10-09T10:44:08.050Z,76.00
2018-10-09T10:46:37.344Z,75.80
2018-10-09T10:49:08.404Z,75.40
2018-10-09T10:51:37.416Z,75.60
2018-10-09T10:54:05.793Z,74.70
2018-10-09T10:56:34.555Z,74.60
2018-10-09T10:59:03.128Z,74.10
2018-10-09T11:01:31.757Z,74.80
2018-10-09T11:04:00.033Z,74.50
2018-10-09T11:06:28.418Z,74.70
2018-10-09T11:08:56.802Z,74.30
2018-10-09T11:11:25.194Z,74.20
2018-10-09T11:13:53.569Z,74.00
2018-10-09T11:16:23.216Z,74.10
2018-10-09T11:18:52.340Z,73.90
2018-10-09T11:21:20.965Z,73.30
2018-10-09T11:23:49.168Z,73.50
2018-10-09T11:26:17.552Z,73.00
2018-10-09T11:28:46.140Z,72.60
2018-10-09T11:31:15.158Z,72.40
2018-10-09T11:33:43.534Z,72.00
2018-10-09T11:36:11.904Z,72.30
2018-10-09T11:38:40.385Z,71.30
2018-10-09T11:41:08.759Z,71.40
2018-10-09T11:43:37.145Z,71.40
2018-10-09T11:46:05.602Z,71.50
2018-10-09T11:48:34.035Z,71.20
2018-10-09T11:51:02.420Z,70.80
2018-10-09T11:53:30.838Z,70.40
2018-10-09T11:55:59.562Z,71.00
2018-10-09T11:58:28.044Z,71.00
2018-10-09T12:00:58.637Z,70.60
2018-10-09T12:03:27.007Z,70.80
2018-10-09T12:05:55.422Z,70.80
2018-10-09T12:08:23.845Z,71.20
2018-10-09T12:10:52.207Z,71.10
2018-10-09T12:13:20.616Z,71.40
2018-10-09T12:15:49.051Z,71.20
2018-10-09T12:18:17.427Z,71.20
2018-10-09T12:20:45.795Z,71.10
2018-10-09T12:23:14.233Z,71.50
2018-10-09T12:25:42.604Z,70.90
2018-10-09T12:28:11.644Z,70.70
2018-10-09T12:30:40.001Z,70.30
2018-10-09T12:33:08.363Z,70.10
2018-10-09T12:35:36.761Z,69.40
2018-10-09T12:38:05.340Z,69.20
2018-10-09T12:40:33.742Z,69.00
2018-10-09T12:43:02.091Z,68.40
2018-10-09T12:45:30.481Z,68.10
2018-10-09T12:47:58.855Z,68.30
2018-10-09T12:50:27.250Z,68.20
2018-10-09T12:52:55.675Z,68.10
2018-10-09T12:55:24.058Z,68.20
2018-10-09T12:57:52.421Z,68.10
2018-10-09T13:00:20.804Z,67.60
2018-10-09T13:02:49.269Z,68.10
2018-10-09T13:05:17.721Z,67.90
2018-10-09T13:07:46.104Z,68.00
2018-10-09T13:10:14.483Z,67.90
2018-10-09T13:12:42.840Z,67.30
2018-10-09T13:15:11.409Z,67.50
2018-10-09T13:17:40.363Z,68.00
2018-10-09T13:20:08.816Z,67.20
2018-10-09T13:22:37.364Z,67.10
2018-10-09T13:25:05.993Z,66.50
2018-10-09T13:27:34.353Z,66.30
2018-10-09T13:30:02.736Z,66.20
2018-10-09T13:32:31.121Z,66.40
2018-10-09T13:34:59.573Z,66.00
2018-10-09T13:37:27.935Z,65.60
2018-10-09T13:39:56.351Z,65.90
2018-10-09T13:42:24.707Z,65.70
2018-10-09T13:44:53.083Z,65.50
2018-10-09T13:47:21.547Z,65.70
2018-10-09T13:49:49.849Z,65.80
2018-10-09T13:52:18.204Z,65.80
2018-10-09T13:54:46.587Z,65.50
2018-10-09T13:57:15.122Z,65.50
2018-10-09T13:59:43.527Z,65.10
2018-10-09T14:02:11.918Z,65.00
2018-10-09T14:04:40.315Z,64.80
2018-10-09T14:07:08.722Z,64.60
2018-10-09T14:09:37.116Z,64.30
2018-10-09T14:12:05.658Z,64.00
2018-10-09T14:14:34.373Z,63.40
2018-10-09T14:17:02.757Z,62.80
2018-10-09T14:19:31.138Z,62.70
2018-10-09T14:21:59.501Z,62.30
2018-10-09T14:24:27.907Z,62.20
2018-10-09T14:26:56.282Z,62.20
2018-10-09T14:29:24.668Z,62.10
2018-10-09T14:31:53.059Z,62.20
2018-10-09T14:34:21.419Z,62.20
2018-10-09T14:36:49.797Z,62.20
2018-10-09T14:39:18.163Z,62.20
2018-10-09T14:41:46.524Z,62.30
2018-10-09T14:44:14.871Z,62.40
2018-10-09T14:46:43.631Z,62.30
2018-10-09T14:49:11.984Z,62.60
2018-10-09T14:51:40.428Z,62.80
2018-10-09T14:54:08.825Z,62.70
2018-10-09T14:56:37.208Z,63.00
2018-10-09T14:59:05.661Z,62.90
2018-10-09T15:01:34.033Z,63.10
2018-10-09T15:04:02.449Z,63.30
2018-10-09T15:06:30.878Z,63.50
2018-10-09T15:08:59.228Z,63.60
2018-10-09T15:11:27.589Z,63.80
2018-10-09T15:13:55.940Z,64.30
2018-10-09T15:16:24.334Z,64.10
2018-10-09T15:18:52.711Z,64.40
2018-10-09T15:21:21.135Z,64.30
2018-10-09T15:23:49.506Z,64.50
2018-10-09T15:26:17.879Z,64.40
2018-10-09T15:28:46.248Z,64.50
2018-10-09T15:31:14.620Z,64.50
2018-10-09T15:33:42.984Z,64.60
2018-10-09T15:36:11.589Z,65.00
2018-10-09T15:38:39.939Z,65.30
2018-10-09T15:41:08.340Z,65.60
2018-10-09T15:43:36.700Z,66.10
2018-10-09T15:46:05.748Z,66.60
2018-10-09T15:48:34.111Z,66.90
2018-10-09T15:51:02.492Z,67.30
2018-10-09T15:53:30.847Z,67.40
2018-10-09T15:55:59.276Z,68.10
2018-10-09T15:58:27.739Z,68.40
2018-10-09T16:00:56.101Z,68.90
2018-10-09T16:03:24.486Z,69.30
2018-10-09T16:05:52.989Z,69.80
2018-10-09T16:08:21.343Z,70.20
2018-10-09T16:10:49.728Z,70.50
2018-10-09T16:13:18.091Z,71.20
2018-10-09T16:15:46.473Z,71.70
2018-10-09T16:18:14.842Z,72.10
2018-10-09T16:20:43.247Z,72.50
2018-10-09T16:23:11.623Z,73.00
2018-10-09T16:25:40.104Z,73.50
2018-10-09T16:28:09.004Z,73.80
2018-10-09T16:30:37.391Z,74.30
2018-10-09T16:33:05.778Z,75.00
2018-10-09T16:35:34.174Z,75.40
2018-10-09T16:38:02.559Z,76.20
2018-10-09T16:40:30.975Z,76.70
2018-10-09T16:42:59.313Z,76.90
2018-10-09T16:45:27.660Z,77.50
2018-10-09T16:47:56.053Z,78.10
2018-10-09T16:50:24.422Z,78.20
2018-10-09T16:52:52.792Z,78.60
2018-10-09T16:55:21.154Z,78.80
2018-10-09T16:57:49.531Z,79.10
2018-10-09T17:00:17.891Z,79.70
2018-10-09T17:02:46.376Z,80.20
2018-10-09T17:05:14.747Z,81.40
2018-10-09T17:07:43.281Z,81.10
2018-10-09T17:10:11.672Z,81.70
2018-10-09T17:12:40.047Z,82.20
2018-10-09T17:15:08.517Z,82.20
2018-10-09T17:17:36.867Z,82.30
2018-10-09T17:20:05.285Z,82.70
2018-10-09T17:22:33.777Z,83.40
2018-10-09T17:25:02.141Z,83.80
2018-10-09T17:27:30.568Z,84.30
2018-10-09T17:29:58.931Z,84.70
2018-10-09T17:32:27.766Z,85.20
2018-10-09T17:34:56.112Z,85.20
2018-10-09T17:37:24.505Z,85.80
2018-10-09T17:39:52.853Z,86.20
2018-10-09T17:42:21.311Z,86.50
2018-10-09T17:44:49.653Z,86.60
2018-10-09T17:47:18.022Z,86.50
2018-10-09T17:49:46.464Z,86.80
2018-10-09T17:52:14.847Z,87.20
2018-10-09T17:54:43.237Z,87.60
2018-10-09T17:57:11.650Z,87.80
2018-10-09T17:59:40.026Z,88.20
2018-10-09T18:02:08.428Z,88.30
2018-10-09T18:04:36.812Z,88.70
2018-10-09T18:07:05.229Z,88.70
2018-10-09T18:09:33.788Z,89.20
2018-10-09T18:12:02.214Z,89.40
2018-10-09T18:14:30.620Z,89.50
2018-10-09T18:16:59.027Z,89.70
2018-10-09T18:19:27.398Z,90.00
2018-10-09T18:21:55.817Z,90.20
2018-10-09T18:24:24.172Z,90.30
2018-10-09T18:26:52.559Z,90.50
2018-10-09T18:29:20.920Z,90.80
2018-10-09T18:31:49.289Z,90.90
2018-10-09T18:34:17.706Z,90.90
2018-10-09T18:36:46.102Z,91.00
2018-10-09T18:39:15.817Z,91.00
2018-10-09T18:41:45.108Z,91.10
2018-10-09T18:44:13.796Z,91.30
2018-10-09T18:46:42.163Z,91.50
2018-10-09T18:49:10.592Z,91.50
2018-10-09T18:51:38.969Z,91.60
2018-10-09T18:54:07.663Z,91.80
2018-10-09T18:56:36.068Z,92.10
2018-10-09T18:59:04.453Z,92.20
2018-10-09T19:01:32.846Z,92.00
2018-10-09T19:04:01.212Z,92.10
2018-10-09T19:06:29.573Z,92.20
2018-10-09T19:08:57.947Z,92.40
2018-10-09T19:11:27.107Z,92.70
2018-10-09T19:13:56.869Z,92.50
2018-10-09T19:16:25.700Z,92.50
2018-10-09T19:18:54.068Z,92.50
2018-10-09T19:21:22.436Z,92.50
2018-10-09T19:23:50.839Z,92.70
2018-10-09T19:26:19.175Z,92.60
2018-10-09T19:28:47.535Z,92.50
2018-10-09T19:31:15.908Z,92.50
2018-10-09T19:33:44.287Z,92.40
2018-10-09T19:36:12.651Z,92.40
2018-10-09T19:38:41.089Z,92.60
2018-10-09T19:41:10.188Z,92.60
2018-10-09T19:43:39.451Z,92.70
2018-10-09T19:46:08.825Z,92.70
2018-10-09T19:48:37.240Z,93.00
2018-10-09T19:51:05.645Z,93.30
2018-10-09T19:53:35.101Z,93.40
2018-10-09T19:56:04.356Z,93.70
2018-10-09T19:58:33.618Z,93.40
2018-10-09T20:01:02.717Z,93.40
2018-10-09T20:03:32.168Z,93.50
2018-10-09T20:06:00.972Z,93.30
2018-10-09T20:08:29.815Z,93.20
2018-10-09T20:10:58.180Z,93.30
2018-10-09T20:13:27.410Z,93.40
2018-10-09T20:15:55.868Z,93.70
2018-10-09T20:18:24.239Z,93.70
2018-10-09T20:20:53.296Z,94.00
2018-10-09T20:23:22.452Z,94.20
2018-10-09T20:25:50.822Z,94.50
2018-10-09T20:28:19.178Z,94.40
2018-10-09T20:30:47.571Z,94.40
2018-10-09T20:33:15.948Z,94.20
2018-10-09T20:35:44.321Z,94.00
2018-10-09T20:38:12.747Z,93.90
2018-10-09T20:40:41.117Z,94.00
2018-10-09T20:43:09.461Z,94.10
2018-10-09T20:45:37.940Z,94.20
2018-10-09T20:48:06.475Z,94.40
2018-10-09T20:50:34.835Z,94.70
2018-10-09T20:53:03.175Z,94.90
2018-10-09T20:55:31.531Z,95.30
2018-10-09T20:57:59.873Z,94.40
2018-10-09T21:00:28.227Z,94.50
2018-10-09T21:02:56.568Z,94.50
2018-10-09T21:05:24.976Z,94.80
2018-10-09T21:07:53.367Z,95.00
2018-10-09T21:10:21.754Z,95.20
2018-10-09T21:12:50.104Z,95.20
2018-10-09T21:15:18.489Z,94.60
2018-10-09T21:17:46.999Z,94.50
2018-10-09T21:20:15.276Z,94.70
2018-10-09T21:22:43.652Z,94.60
2018-10-09T21:25:12.235Z,95.00
2018-10-09T21:27:40.575Z,95.30
2018-10-09T21:30:08.936Z,95.40
2018-10-09T21:32:37.368Z,95.40
2018-10-09T21:35:05.758Z,95.20
2018-10-09T21:37:34.111Z,95.00
2018-10-09T21:40:02.539Z,95.00
2018-10-09T21:42:30.896Z,94.80
2018-10-09T21:44:59.263Z,95.10
2018-10-09T21:47:27.752Z,94.90
2018-10-09T21:49:56.214Z,95.00
2018-10-09T21:52:24.567Z,94.80
2018-10-09T21:54:52.923Z,94.80
2018-10-09T21:57:21.267Z,94.70
2018-10-09T21:59:49.662Z,94.80
2018-10-09T22:02:18.008Z,94.80
2018-10-09T22:04:46.364Z,94.80
2018-10-09T22:07:17.944Z,94.80
2018-10-09T22:09:46.704Z,95.20
2018-10-09T22:12:15.089Z,95.10
2018-10-09T22:14:43.455Z,94.90
2018-10-09T22:17:11.836Z,94.90
2018-10-09T22:19:40.261Z,95.10
2018-10-09T22:22:08.619Z,94.90
2018-10-09T22:24:37.079Z,94.90
2018-10-09T22:27:05.488Z,95.00
2018-10-09T22:29:33.846Z,95.00
2018-10-09T22:32:02.215Z,95.10
2018-10-09T22:34:30.606Z,95.00
2018-10-09T22:36:58.982Z,95.50
2018-10-09T22:39:27.320Z,95.80
2018-10-09T22:41:55.690Z,95.90
2018-10-09T22:44:24.047Z,95.60
2018-10-09T22:46:52.428Z,95.40
2018-10-09T22:49:20.952Z,95.20
2018-10-09T22:51:49.314Z,95.40
2018-10-09T22:54:17.652Z,95.70
2018-10-09T22:56:46.023Z,95.90
2018-10-09T22:59:14.364Z,96.10
2018-10-09T23:01:42.728Z,96.00
2018-10-09T23:04:11.083Z,95.60
2018-10-09T23:06:39.440Z,95.90
2018-10-09T23:09:09.770Z,95.50
2018-10-09T23:11:38.455Z,95.50
2018-10-09T23:14:06.976Z,95.40
2018-10-09T23:16:35.719Z,95.50
2018-10-09T23:19:04.136Z,95.60
2018-10-09T23:21:32.532Z,95.60
2018-10-09T23:24:00.869Z,95.70
2018-10-09T23:26:29.236Z,95.80
2018-10-09T23:28:57.583Z,95.90
2018-10-09T23:31:25.939Z,95.90
2018-10-09T23:33:54.556Z,95.90
2018-10-09T23:36:24.326Z,96.40
2018-10-09T23:38:52.680Z,96.40
2018-10-09T23:41:21.043Z,96.40
2018-10-09T23:43:49.392Z,96.00
2018-10-09T23:46:17.753Z,96.00
2018-10-09T23:48:46.131Z,95.90
2018-10-09T23:51:14.508Z,96.30
2018-10-09T23:53:42.871Z,96.50
2018-10-09T23:56:11.239Z,96.50
2018-10-09T23:58:39.605Z,96.60
